Time;durP1;ratioP1;P1;durP2;ratioP2;P2;SDS_P1;SDS_P2;PMS_P1;PMS_P2;Temp;Humidity;BMP_temperature;BMP_pressure;BME280_temperature;BME280_humidity;BME280_pressure;Samples;Min_cycle;Max_cycle;Signal;HPM_P1;HPM_P2
2021/10/07 00:01:42;;;;;;;5.50;3.40;;;;;;;12.72;85.85;97646.88;5025931;28;20054;-61
2021/10/07 00:04:09;;;;;;;11.00;5.88;;;;;;;12.98;85.00;97679.47;5027269;28;20052;-60
2021/10/07 00:06:36;;;;;;;9.05;5.13;;;;;;;10.57;84.10;97299.69;5027273;28;20517;-60
2021/10/07 00:09:04;;;;;;;5.53;2.53;;;;;;;13.02;82.00;97686.78;5027198;28;20060;-60
2021/10/07 00:11:31;;;;;;;5.13;2.72;;;;;;;12.94;81.33;97673.06;5027474;28;20076;-60
2021/10/07 00:13:59;;;;;;;8.93;2.53;;;;;;;13.09;81.13;97686.06;5025638;28;20049;-63
2021/10/07 00:16:25;;;;;;;8.85;2.92;;;;;;;13.01;81.98;97684.38;5027622;28;20049;-61
2021/10/07 00:18:53;;;;;;;4.57;2.17;;;;;;;13.05;82.10;97691.59;5026644;28;20526;-62
2021/10/07 00:21:19;;;;;;;8.23;3.03;;;;;;;12.96;81.80;97643.72;5026724;28;20057;-62
2021/10/07 00:24:05;;;;;;;6.55;2.92;;;;;;;13.07;81.37;97653.06;5025450;28;20614;-61
2021/10/07 00:26:34;;;;;;;5.70;3.13;;;;;;;13.16;81.05;97681.47;5027460;28;20077;-61
2021/10/07 00:31:44;;;;;;;8.63;2.88;;;;;;;13.00;81.05;97657.69;5027502;28;20062;-60
2021/10/07 00:37:08;;;;;;;9.02;4.25;;;;;;;12.67;85.07;97672.19;5026751;28;20053;-60
2021/10/07 00:39:35;;;;;;;10.15;5.43;;;;;;;12.48;86.29;97672.22;5026307;28;20056;-61
2021/10/07 00:42:02;;;;;;;6.95;4.40;;;;;;;12.32;87.43;97674.28;5026538;28;20072;-60
2021/10/07 00:44:31;;;;;;;9.70;5.05;;;;;;;12.40;86.96;97676.03;5026317;28;20068;-61
2021/10/07 00:47:02;;;;;;;9.00;4.13;;;;;;;12.52;86.08;97650.84;5026668;28;20049;-61
2021/10/07 00:49:32;;;;;;;8.18;4.20;;;;;;;12.43;85.37;97616.94;5025951;28;20049;-60
2021/10/07 00:51:59;;;;;;;5.40;3.28;;;;;;;12.21;84.55;97562.16;5026805;28;20061;-60
2021/10/07 00:54:27;;;;;;;4.63;2.80;;;;;;;12.94;83.86;97668.31;5024750;28;20045;-61
2021/10/07 00:56:56;;;;;;;6.15;2.35;;;;;;;12.91;82.93;97644.03;5026685;28;20053;-60
2021/10/07 00:59:23;;;;;;;5.18;2.35;;;;;;;12.97;83.11;97662.00;5024476;28;20060;-60
2021/10/07 01:01:50;;;;;;;5.47;2.20;;;;;;;12.78;82.99;97633.44;5026170;28;20045;-60
2021/10/07 01:04:17;;;;;;;4.90;2.53;;;;;;;12.20;82.86;97528.00;5025539;28;20115;-61
2021/10/07 01:06:43;;;;;;;2.83;2.42;;;;;;;12.63;83.01;97601.81;5026020;28;20589;-61
2021/10/07 01:09:16;;;;;;;3.88;2.45;;;;;;;13.12;82.31;97658.31;5026140;28;20467;-64
2021/10/07 01:11:43;;;;;;;5.28;2.80;;;;;;;13.18;81.47;97667.94;5024913;28;20053;-61
2021/10/07 01:14:10;;;;;;;5.25;2.38;;;;;;;13.16;81.89;97658.38;5026122;28;20056;-62
2021/10/07 01:16:36;;;;;;;5.30;2.30;;;;;;;13.03;81.73;97643.88;5026342;28;20066;-60
2021/10/07 01:19:03;;;;;;;3.70;2.47;;;;;;;13.21;81.36;97653.31;5025809;28;20099;-61
2021/10/07 01:21:30;;;;;;;5.93;2.67;;;;;;;13.21;81.00;97646.94;5026025;28;20049;-63
2021/10/07 01:23:57;;;;;;;14.02;3.17;;;;;;;13.12;81.59;97654.75;5025824;28;20053;-60
2021/10/07 01:26:24;;;;;;;5.80;2.20;;;;;;;13.06;81.72;97651.47;5024429;28;20052;-60
2021/10/07 01:28:51;;;;;;;3.58;2.10;;;;;;;13.06;81.90;97654.25;5025771;28;20528;-61
2021/10/07 01:31:19;;;;;;;3.75;2.63;;;;;;;12.66;81.48;97601.06;5025831;28;20053;-61
2021/10/07 01:33:46;;;;;;;4.68;2.13;;;;;;;12.94;81.02;97607.16;5024362;28;20056;-62
2021/10/07 01:36:13;;;;;;;5.57;2.58;;;;;;;13.07;81.64;97644.72;5024476;28;20061;-61
2021/10/07 01:38:40;;;;;;;6.22;2.55;;;;;;;12.69;81.69;97600.34;5025775;28;20053;-63
2021/10/07 01:41:07;;;;;;;4.43;2.63;;;;;;;13.13;80.82;97643.25;5025193;28;20049;-60
2021/10/07 01:43:34;;;;;;;5.95;2.65;;;;;;;12.74;80.46;97602.03;5025625;28;20460;-60
2021/10/07 01:46:01;;;;;;;4.30;2.30;;;;;;;12.96;81.22;97610.34;5024896;28;20052;-61
2021/10/07 01:48:30;;;;;;;4.30;3.30;;;;;;;13.11;81.16;97640.03;5024023;28;20065;-60
2021/10/07 01:50:56;;;;;;;10.30;3.60;;;;;;;12.75;80.64;97567.47;5024852;28;20057;-63
2021/10/07 01:53:23;;;;;;;7.88;3.35;;;;;;;13.22;80.74;97621.53;5025271;28;20050;-64
2021/10/07 01:55:50;;;;;;;8.23;3.50;;;;;;;13.27;80.51;97628.75;5024631;28;20061;-61
2021/10/07 01:58:17;;;;;;;6.53;3.13;;;;;;;13.28;80.51;97620.03;5025748;28;20053;-61
2021/10/07 02:00:44;;;;;;;4.95;3.17;;;;;;;13.19;80.93;97625.06;5024846;28;20540;-62
2021/10/07 02:03:15;;;;;;;7.93;4.72;;;;;;;13.11;81.89;97626.13;5025202;28;20072;-60
2021/10/07 02:05:42;;;;;;;14.00;6.40;;;;;;;12.87;84.68;97618.13;5025121;28;20650;-61
2021/10/07 02:08:08;;;;;;;19.10;8.25;;;;;;;12.99;84.28;97615.16;5025118;28;20054;-61
2021/10/07 02:10:35;;;;;;;13.00;6.30;;;;;;;10.87;84.15;97291.56;5024845;28;20068;-60
2021/10/07 02:13:02;;;;;;;8.10;4.13;;;;;;;12.93;84.83;97624.19;5024935;28;20064;-60
2021/10/07 02:15:29;;;;;;;7.13;3.15;;;;;;;11.62;83.36;97392.44;5024518;28;20049;-61
2021/10/07 02:17:56;;;;;;;8.85;3.47;;;;;;;13.11;83.58;97622.53;5024693;28;20116;-61
2021/10/07 02:20:23;;;;;;;9.85;5.15;;;;;;;12.62;83.84;97600.22;5024504;28;20103;-60
2021/10/07 02:22:50;;;;;;;11.65;5.70;;;;;;;12.71;86.25;97625.78;5024924;28;20096;-64
2021/10/07 02:25:17;;;;;;;12.02;4.10;;;;;;;12.66;86.86;97639.97;5024400;28;20128;-61
2021/10/07 02:27:43;;;;;;;12.43;5.43;;;;;;;12.45;88.07;97634.06;5025049;28;20057;-61
2021/10/07 02:30:12;;;;;;;6.80;3.67;;;;;;;12.55;88.24;97633.44;5024082;28;20053;-63
2021/10/07 02:32:38;;;;;;;9.93;3.10;;;;;;;12.55;88.19;97627.88;5023221;28;20063;-61
2021/10/07 02:35:06;;;;;;;7.07;2.75;;;;;;;12.10;88.02;97575.84;5024154;28;20517;-62
2021/10/07 02:37:33;;;;;;;4.03;2.20;;;;;;;12.60;87.64;97627.56;5024518;28;20053;-60
2021/10/07 02:40:00;;;;;;;4.80;2.55;;;;;;;11.99;87.10;97527.63;5024025;28;20053;-60
2021/10/07 02:42:27;;;;;;;5.05;2.35;;;;;;;12.62;87.23;97633.56;5024604;28;20232;-61
2021/10/07 02:44:53;;;;;;;3.78;2.50;;;;;;;11.59;87.37;97462.53;5024251;28;20045;-60
2021/10/07 02:47:20;;;;;;;3.50;3.05;;;;;;;12.67;87.14;97632.47;5024808;28;20057;-61
2021/10/07 02:49:47;;;;;;;2.90;2.20;;;;;;;12.64;86.61;97628.44;5024161;28;20057;-60
2021/10/07 02:52:14;;;;;;;3.83;2.60;;;;;;;12.43;85.84;97574.44;5023858;28;20588;-62
2021/10/07 02:54:41;;;;;;;5.35;2.60;;;;;;;12.83;85.54;97617.28;5023683;28;20093;-60
2021/10/07 02:57:07;;;;;;;5.07;2.22;;;;;;;12.80;85.61;97612.47;5022617;28;20148;-61
2021/10/07 02:59:34;;;;;;;4.35;2.70;;;;;;;12.70;86.32;97615.84;5023644;28;20149;-63
2021/10/07 03:02:01;;;;;;;4.32;2.92;;;;;;;12.61;86.92;97626.41;5024088;28;20524;-60
2021/10/07 03:04:28;;;;;;;7.05;3.20;;;;;;;12.75;85.77;97609.19;5023720;28;20532;-60
2021/10/07 03:06:55;;;;;;;4.15;3.25;;;;;;;12.70;85.87;97607.50;5023114;28;20057;-62
2021/10/07 03:09:22;;;;;;;6.22;2.83;;;;;;;12.64;86.51;97609.00;5023400;28;20065;-63
2021/10/07 03:11:49;;;;;;;6.85;3.00;;;;;;;12.66;86.81;97628.88;5022228;28;20551;-61
2021/10/07 03:14:15;;;;;;;5.13;3.75;;;;;;;12.22;86.59;97540.75;5023299;28;20105;-61
2021/10/07 03:16:42;;;;;;;5.75;3.35;;;;;;;12.36;87.06;97568.78;5023829;28;20077;-63
2021/10/07 03:19:09;;;;;;;4.03;2.75;;;;;;;12.67;86.52;97608.25;5023912;28;20907;-61
2021/10/07 03:21:37;;;;;;;6.45;2.83;;;;;;;12.68;86.45;97598.72;5020658;28;20144;-63
2021/10/07 03:24:05;;;;;;;5.45;2.53;;;;;;;12.66;85.56;97589.16;5023194;28;20215;-60
2021/10/07 03:26:32;;;;;;;5.80;2.72;;;;;;;12.77;85.57;97601.28;5022246;28;20056;-63
2021/10/07 03:28:58;;;;;;;8.20;3.25;;;;;;;12.80;85.04;97594.97;5024137;28;20595;-61
2021/10/07 03:31:25;;;;;;;4.80;2.92;;;;;;;12.71;85.43;97586.88;5022729;28;20493;-61
2021/10/07 03:33:52;;;;;;;5.53;2.65;;;;;;;12.39;85.39;97557.72;5024119;28;20073;-62
2021/10/07 03:36:19;;;;;;;4.90;2.97;;;;;;;12.78;85.26;97587.00;5021577;28;20144;-61
2021/10/07 03:38:46;;;;;;;7.10;3.20;;;;;;;12.53;85.41;97569.09;5023837;28;20054;-61
2021/10/07 03:41:13;;;;;;;5.97;3.83;;;;;;;12.57;86.30;97574.69;5023638;28;20058;-63
2021/10/07 03:43:40;;;;;;;5.28;3.00;;;;;;;12.49;86.39;97576.56;5023681;28;20062;-60
2021/10/07 03:46:06;;;;;;;5.75;3.65;;;;;;;12.04;86.86;97520.97;5023411;28;20539;-60
2021/10/07 03:48:33;;;;;;;9.93;3.53;;;;;;;12.22;86.98;97555.41;5024047;28;20138;-60
2021/10/07 03:51:00;;;;;;;12.35;4.43;;;;;;;12.32;88.34;97579.81;5023013;28;20055;-60
2021/10/07 03:53:27;;;;;;;10.60;4.15;;;;;;;11.85;88.01;97526.53;5023201;28;20535;-62
2021/10/07 03:55:55;;;;;;;8.48;3.53;;;;;;;11.99;87.93;97532.38;5021869;28;20154;-60
2021/10/07 03:58:22;;;;;;;5.50;2.97;;;;;;;11.96;87.81;97528.38;5021320;28;20144;-60
2021/10/07 04:00:49;;;;;;;6.57;2.70;;;;;;;12.23;87.14;97563.38;5022829;28;20046;-60
2021/10/07 04:03:17;;;;;;;6.53;2.65;;;;;;;12.37;87.45;97593.41;5023020;28;20477;-60
2021/10/07 04:05:44;;;;;;;6.10;3.17;;;;;;;12.39;87.64;97591.06;5022513;28;20523;-61
2021/10/07 04:08:10;;;;;;;5.70;2.70;;;;;;;12.32;87.72;97590.13;5023826;28;20141;-60
2021/10/07 04:10:37;;;;;;;5.70;2.92;;;;;;;12.36;87.97;97591.78;5021295;28;20543;-61
2021/10/07 04:13:04;;;;;;;7.35;2.90;;;;;;;12.48;86.74;97583.28;5022939;28;20116;-62
2021/10/07 04:15:32;;;;;;;20.63;4.97;;;;;;;9.85;86.89;97179.44;5023252;28;20612;-60
2021/10/07 04:17:59;;;;;;;18.75;4.45;;;;;;;12.22;88.34;97580.41;5021402;28;20496;-60
2021/10/07 04:20:27;;;;;;;16.60;4.88;;;;;;;12.31;87.95;97578.22;5022039;28;20049;-62
2021/10/07 04:22:53;;;;;;;10.40;3.78;;;;;;;12.29;88.19;97575.00;5021359;28;20065;-62
2021/10/07 04:25:20;;;;;;;9.52;4.28;;;;;;;12.03;87.51;97522.13;5022950;28;20050;-60
2021/10/07 04:27:47;;;;;;;40.83;8.05;;;;;;;12.10;89.12;97577.81;5021426;28;20140;-60
2021/10/07 04:30:14;;;;;;;42.30;9.02;;;;;;;11.79;89.75;97544.66;5022780;28;20136;-60
2021/10/07 04:32:43;;;;;;;72.00;12.93;;;;;;;10.91;89.28;97375.59;5023416;28;20057;-60
2021/10/07 04:35:10;;;;;;;63.47;14.27;;;;;;;12.14;89.54;97578.66;5023115;28;20501;-61
2021/10/07 04:37:37;;;;;;;64.05;13.90;;;;;;;11.32;89.76;97447.75;5021772;28;20127;-60
2021/10/07 04:40:05;;;;;;;30.83;9.75;;;;;;;12.15;89.51;97552.50;5022822;28;20045;-61
2021/10/07 04:42:32;;;;;;;17.90;6.45;;;;;;;12.27;89.42;97579.28;5021608;28;20128;-62
2021/10/07 04:44:59;;;;;;;23.85;7.75;;;;;;;11.52;89.36;97467.97;5021137;28;20129;-61
2021/10/07 04:47:28;;;;;;;15.18;5.72;;;;;;;12.11;90.29;97573.84;5024414;28;20133;-61
2021/10/07 04:49:56;;;;;;;30.58;11.25;;;;;;;12.16;90.43;97582.69;5026625;28;20053;-61
2021/10/07 04:52:22;;;;;;;13.80;5.32;;;;;;;11.67;92.07;97591.97;5024462;28;20142;-62
2021/10/07 04:54:52;;;;;;;6.18;2.92;;;;;;;11.14;96.12;97596.31;5025779;28;20059;-62
2021/10/07 04:57:19;;;;;;;9.68;4.38;;;;;;;11.48;96.09;97589.94;5024710;28;20049;-62
2021/10/07 04:59:46;;;;;;;9.73;4.40;;;;;;;11.64;93.98;97562.19;5025384;28;20046;-65
2021/10/07 05:02:13;;;;;;;13.25;5.38;;;;;;;12.06;92.02;97602.72;5025930;28;20132;-62
2021/10/07 05:04:40;;;;;;;5.78;3.70;;;;;;;12.17;90.62;97584.28;5025825;28;20060;-63
2021/10/07 05:07:07;;;;;;;13.07;3.97;;;;;;;12.43;89.39;97580.81;5025757;28;20053;-62
2021/10/07 05:09:34;;;;;;;10.68;4.85;;;;;;;12.65;88.51;97580.03;5024808;28;20056;-64
2021/10/07 05:12:00;;;;;;;7.25;3.85;;;;;;;12.78;86.59;97575.88;5026235;28;20068;-62
2021/10/07 05:14:27;;;;;;;6.95;3.88;;;;;;;12.76;86.33;97567.09;5025700;28;20136;-65
2021/10/07 05:16:53;;;;;;;7.85;3.50;;;;;;;12.44;84.75;97507.38;5024402;28;20053;-60
2021/10/07 05:19:20;;;;;;;5.40;3.08;;;;;;;13.17;84.06;97584.88;5024105;28;20053;-63
2021/10/07 05:21:47;;;;;;;5.75;2.90;;;;;;;13.27;83.68;97598.97;5025885;28;20050;-62
2021/10/07 05:24:13;;;;;;;9.75;3.33;;;;;;;13.36;83.07;97591.16;5024914;28;20059;-60
2021/10/07 05:26:40;;;;;;;4.93;3.35;;;;;;;13.35;81.90;97583.97;5026173;28;20461;-63
2021/10/07 05:29:07;;;;;;;6.18;3.30;;;;;;;13.09;81.56;97531.13;5026356;28;20049;-62
2021/10/07 05:31:34;;;;;;;4.63;3.40;;;;;;;13.45;81.28;97583.31;5026383;28;20087;-65
2021/10/07 05:34:00;;;;;;;6.22;3.33;;;;;;;13.13;81.55;97522.84;5026029;28;20058;-62
2021/10/07 05:36:27;;;;;;;4.38;3.70;;;;;;;13.41;82.22;97576.91;5025623;28;20057;-62
2021/10/07 05:38:54;;;;;;;11.07;5.82;;;;;;;13.42;81.72;97556.25;5023951;28;20061;-61
2021/10/07 05:41:21;;;;;;;6.38;3.53;;;;;;;13.51;81.68;97547.63;5025577;28;20053;-61
2021/10/07 05:43:47;;;;;;;5.47;3.38;;;;;;;13.56;81.55;97562.00;5024872;28;20049;-62
2021/10/07 05:46:14;;;;;;;5.15;2.85;;;;;;;12.70;80.74;97407.38;5023930;28;20046;-61
2021/10/07 05:48:41;;;;;;;6.93;3.50;;;;;;;11.47;80.68;97210.28;5025944;28;20054;-61
2021/10/07 05:51:08;;;;;;;7.22;2.80;;;;;;;13.60;80.60;97562.88;5023239;28;20049;-62
2021/10/07 05:53:35;;;;;;;12.45;3.22;;;;;;;13.48;81.90;97565.88;5025324;28;20053;-62
2021/10/07 05:56:01;;;;;;;5.35;2.90;;;;;;;13.58;81.04;97570.78;5025274;28;20432;-62
2021/10/07 05:58:28;;;;;;;4.05;3.00;;;;;;;13.66;80.78;97583.63;5024681;28;20064;-61
2021/10/07 06:00:55;;;;;;;3.42;2.10;;;;;;;13.74;80.68;97578.94;5023681;28;20051;-63
2021/10/07 06:03:22;;;;;;;5.60;3.03;;;;;;;13.92;80.24;97582.78;5025186;28;20104;-63
2021/10/07 06:05:48;;;;;;;6.00;3.08;;;;;;;14.07;79.63;97580.97;5024870;28;20056;-64
2021/10/07 06:08:15;;;;;;;4.18;2.75;;;;;;;14.18;78.10;97565.97;5025307;28;20061;-62
2021/10/07 06:10:42;;;;;;;6.65;2.42;;;;;;;14.40;76.84;97589.34;5023888;28;20045;-62
2021/10/07 06:13:08;;;;;;;5.57;3.15;;;;;;;14.37;74.85;97595.69;5020383;28;20520;-63
2021/10/07 06:15:35;;;;;;;4.45;2.78;;;;;;;14.40;73.61;97550.31;5025015;28;20072;-70
2021/10/07 06:18:02;;;;;;;5.28;2.85;;;;;;;14.45;73.16;97575.03;5023965;28;20075;-65
2021/10/07 06:22:56;;;;;;;3.83;2.53;;;;;;;14.96;72.15;97595.47;5023552;28;20432;-64
2021/10/07 06:25:23;;;;;;;8.02;2.40;;;;;;;15.04;71.71;97592.34;5011833;28;20057;-63
2021/10/07 06:27:51;;;;;;;4.80;2.95;;;;;;;14.78;70.84;97538.69;5023631;28;20049;-67
2021/10/07 06:30:20;;;;;;;6.63;3.67;;;;;;;14.95;70.48;97554.81;5022103;28;20056;-64
2021/10/07 06:32:49;;;;;;;7.38;2.70;;;;;;;15.35;69.70;97595.78;5022281;28;20057;-64
2021/10/07 06:35:17;;;;;;;5.20;3.08;;;;;;;15.30;69.99;97582.97;5023649;28;20049;-61
2021/10/07 06:37:44;;;;;;;5.60;2.80;;;;;;;14.53;69.20;97445.69;5022157;28;20046;-70
2021/10/07 06:40:11;;;;;;;3.83;2.97;;;;;;;15.38;68.46;97534.41;5023129;28;20057;-66
2021/10/07 06:42:38;;;;;;;6.18;3.38;;;;;;;15.91;67.18;97585.78;5022806;28;20457;-63
2021/10/07 06:45:06;;;;;;;4.63;3.20;;;;;;;15.96;66.95;97587.41;5021349;28;20500;-68
2021/10/07 06:47:33;;;;;;;5.72;3.38;;;;;;;13.38;66.44;97190.88;5021569;28;20514;-61
2021/10/07 06:50:02;;;;;;;6.15;3.05;;;;;;;15.85;65.11;97528.69;5023798;28;20409;-61
2021/10/07 06:52:29;;;;;;;4.38;2.75;;;;;;;16.44;64.19;97586.81;5023669;28;20443;-65
2021/10/07 06:54:56;;;;;;;6.43;3.47;;;;;;;16.54;63.06;97586.03;5024062;28;20045;-64
2021/10/07 06:57:23;;;;;;;5.65;2.95;;;;;;;16.08;62.73;97550.69;5022599;28;20060;-65
2021/10/07 06:59:49;;;;;;;3.97;2.80;;;;;;;16.36;62.65;97559.19;5023046;28;20049;-68
2021/10/07 07:02:17;;;;;;;3.28;2.35;;;;;;;16.52;62.19;97594.00;5023668;28;20057;-63
2021/10/07 07:04:44;;;;;;;6.13;3.00;;;;;;;15.86;62.62;97566.59;5021263;28;20073;-70
2021/10/07 07:07:10;;;;;;;6.53;2.78;;;;;;;15.76;62.50;97561.75;5021884;28;20065;-67
2021/10/07 07:09:37;;;;;;;4.70;2.80;;;;;;;15.21;63.20;97529.47;5018571;28;20107;-63
2021/10/07 07:12:17;;;;;;;4.25;2.40;;;;;;;15.73;63.85;97596.03;5020448;28;20046;-63
2021/10/07 07:14:43;;;;;;;4.68;2.58;;;;;;;15.24;63.03;97484.03;5021140;28;20520;-62
2021/10/07 07:17:10;;;;;;;4.32;3.65;;;;;;;16.15;62.92;97589.88;5019071;28;20049;-65
2021/10/07 07:19:38;;;;;;;7.88;3.17;;;;;;;16.03;62.36;97560.28;5028249;28;20085;-62
2021/10/07 07:22:05;;;;;;;15.68;4.10;;;;;;;16.15;61.66;97556.34;5026923;28;20064;-64
2021/10/07 07:24:32;;;;;;;14.40;5.38;;;;;;;14.60;62.75;97392.78;5021768;28;20045;-67
2021/10/07 07:26:59;;;;;;;7.45;3.90;;;;;;;14.57;61.87;97360.91;5019949;28;20042;-64
2021/10/07 07:29:25;;;;;;;7.40;3.67;;;;;;;16.03;62.85;97582.63;5020639;28;20053;-64
2021/10/07 07:31:52;;;;;;;3.67;2.67;;;;;;;15.26;62.90;97461.31;5020976;28;20041;-64
2021/10/07 07:34:19;;;;;;;5.60;2.50;;;;;;;16.23;61.54;97597.88;5022915;28;20077;-63
2021/10/07 07:36:46;;;;;;;5.90;2.42;;;;;;;14.87;60.66;97391.38;5020554;28;20064;-62
2021/10/07 07:39:13;;;;;;;5.50;2.85;;;;;;;16.31;61.19;97585.53;5021710;28;20088;-62
2021/10/07 07:41:40;;;;;;;7.60;3.42;;;;;;;16.37;60.47;97572.78;5023044;28;20060;-68
2021/10/07 07:44:07;;;;;;;8.38;3.30;;;;;;;16.18;60.01;97510.81;5022650;28;20053;-64
2021/10/07 07:46:34;;;;;;;10.55;3.92;;;;;;;16.67;60.48;97594.03;5004235;28;20072;-67
2021/10/07 07:49:01;;;;;;;12.10;3.00;;;;;;;16.91;58.27;97593.28;5021200;28;20049;-65
2021/10/07 07:51:32;;;;;;;5.30;2.60;;;;;;;16.19;57.98;97518.81;5021116;28;20076;-64
2021/10/07 07:53:59;;;;;;;5.72;2.92;;;;;;;16.95;57.63;97605.28;5023104;28;20116;-67
2021/10/07 07:56:25;;;;;;;7.07;3.33;;;;;;;16.02;58.36;97458.06;5023350;28;20057;-70
2021/10/07 07:58:53;;;;;;;3.75;2.75;;;;;;;16.92;57.92;97606.06;5022873;28;20053;-62
2021/10/07 08:01:24;;;;;;;6.65;4.28;;;;;;;16.88;58.37;97610.88;5022990;28;20055;-69
2021/10/07 08:03:51;;;;;;;4.97;2.83;;;;;;;16.81;58.46;97610.84;5022051;28;20153;-65
2021/10/07 08:06:18;;;;;;;7.15;2.65;;;;;;;16.05;58.58;97518.78;5022696;28;20041;-69
2021/10/07 08:08:44;;;;;;;3.88;3.25;;;;;;;16.88;58.72;97616.47;5018545;28;20150;-64
2021/10/07 08:11:11;;;;;;;7.05;3.00;;;;;;;16.73;59.12;97609.25;5002333;28;20053;-62
2021/10/07 08:13:38;;;;;;;6.32;2.90;;;;;;;16.51;58.37;97581.25;5021915;28;20053;-71
2021/10/07 08:16:05;;;;;;;15.55;3.33;;;;;;;16.10;58.80;97500.81;5021871;28;20049;-67
2021/10/07 08:18:32;;;;;;;7.00;2.88;;;;;;;16.59;58.38;97594.03;5021932;28;20053;-62
2021/10/07 08:20:58;;;;;;;8.43;2.53;;;;;;;16.99;58.12;97614.50;5023000;28;20053;-64
2021/10/07 08:23:29;;;;;;;4.82;3.00;;;;;;;17.03;57.84;97623.69;5026948;28;20469;-64
2021/10/07 08:25:56;;;;;;;8.90;3.90;;;;;;;17.09;57.12;97619.28;5027463;28;20057;-72
2021/10/07 08:28:23;;;;;;;10.95;2.88;;;;;;;17.04;56.88;97625.31;5024758;28;20052;-66
2021/10/07 08:30:50;;;;;;;9.43;2.97;;;;;;;16.88;57.59;97627.66;5025629;28;20060;-66
2021/10/07 08:33:17;;;;;;;9.77;4.18;;;;;;;16.02;57.57;97497.19;5026016;28;20056;-73
2021/10/07 08:35:44;;;;;;;7.68;3.13;;;;;;;16.61;56.66;97580.44;5023594;28;20509;-65
2021/10/07 08:38:12;;;;;;;8.57;3.92;;;;;;;16.77;58.12;97624.06;5025244;28;20271;-62
2021/10/07 08:40:39;;;;;;;6.07;2.83;;;;;;;15.74;57.07;97480.34;5026510;28;20045;-68
2021/10/07 08:43:05;;;;;;;7.65;3.00;;;;;;;16.18;57.80;97561.94;5025880;28;20068;-61
2021/10/07 08:45:32;;;;;;;7.40;2.78;;;;;;;16.77;56.09;97598.88;5025907;28;20046;-62
2021/10/07 08:47:59;;;;;;;7.35;3.38;;;;;;;17.09;56.25;97622.06;5025860;28;20049;-68
2021/10/07 08:50:26;;;;;;;5.28;3.25;;;;;;;17.38;55.04;97613.31;5024841;28;20160;-67
2021/10/07 08:52:54;;;;;;;5.97;3.03;;;;;;;17.40;54.39;97607.31;5026090;28;20057;-67
2021/10/07 08:55:21;;;;;;;9.18;3.30;;;;;;;16.66;54.28;97522.53;5026174;28;20080;-67
2021/10/07 08:57:48;;;;;;;4.80;2.67;;;;;;;16.75;54.89;97595.66;5024842;28;20064;-68
2021/10/07 09:00:16;;;;;;;9.80;3.08;;;;;;;15.89;57.06;97487.56;5026084;28;20060;-70
2021/10/07 09:02:43;;;;;;;7.50;2.85;;;;;;;16.89;55.28;97562.09;5026330;28;20064;-63
2021/10/07 09:05:22;;;;;;;5.25;3.10;;;;;;;16.66;55.69;97609.25;5024547;28;20061;-70
2021/10/07 09:07:55;;;;;;;7.22;2.42;;;;;;;16.82;56.14;97601.28;5007948;28;20440;-68
2021/10/07 09:10:48;;;;;;;3.92;2.35;;;;;;;16.79;55.87;97608.47;5022549;28;20083;-70
2021/10/07 09:13:21;;;;;;;9.20;3.80;;;;;;;17.07;55.19;97585.31;5025823;28;20050;-64
2021/10/07 09:15:51;;;;;;;5.78;2.72;;;;;;;16.93;56.70;97604.91;5026271;28;20132;-74
2021/10/07 09:18:19;;;;;;;8.80;3.00;;;;;;;17.55;55.16;97606.09;5021796;28;20050;-60
2021/10/07 09:20:48;;;;;;;8.68;4.47;;;;;;;18.11;53.60;97594.78;5024177;28;20045;-64
2021/10/07 09:23:35;;;;;;;8.57;3.08;;;;;;;18.23;52.30;97594.31;5022287;28;20066;-64
2021/10/07 09:26:13;;;;;;;7.95;2.95;;;;;;;18.39;52.32;97588.25;5025591;28;20098;-63
2021/10/07 09:29:00;;;;;;;8.35;2.80;;;;;;;17.65;53.07;97535.25;5024784;28;20050;-68
2021/10/07 09:31:32;;;;;;;10.27;3.55;;;;;;;17.96;52.03;97523.13;5026305;28;20048;-64
2021/10/07 09:34:04;;;;;;;4.85;2.90;;;;;;;18.48;52.23;97589.41;5022755;28;20128;-69
2021/10/07 09:36:31;;;;;;;5.78;3.53;;;;;;;18.59;51.67;97587.34;5026013;28;20607;-62
2021/10/07 09:39:01;;;;;;;9.15;3.78;;;;;;;18.59;51.51;97581.72;5025555;28;20061;-64
2021/10/07 09:41:30;;;;;;;3.65;2.83;;;;;;;15.69;50.89;97142.78;5025364;28;20053;-66
2021/10/07 09:44:00;;;;;;;10.88;3.53;;;;;;;18.49;51.33;97596.63;5024498;28;20045;-67
2021/10/07 09:46:47;;;;;;;7.50;4.30;;;;;;;18.36;51.59;97595.47;5025079;28;20440;-67
2021/10/07 09:49:34;;;;;;;6.78;3.30;;;;;;;18.30;51.94;97604.69;5023588;28;20045;-67
2021/10/07 09:52:02;;;;;;;5.10;2.60;;;;;;;17.79;52.76;97599.66;5025131;28;20463;-67
2021/10/07 09:54:38;;;;;;;7.03;3.03;;;;;;;16.90;56.44;97591.69;5025713;28;20053;-67
2021/10/07 09:57:05;;;;;;;9.60;4.57;;;;;;;17.03;55.19;97565.72;5022595;28;20136;-67
2021/10/07 09:59:33;;;;;;;11.02;3.50;;;;;;;17.27;54.57;97569.69;5015559;28;20063;-67
2021/10/07 10:02:00;;;;;;;6.43;2.42;;;;;;;16.78;55.88;97612.47;5025011;28;20045;-66
2021/10/07 10:04:30;;;;;;;9.98;3.05;;;;;;;16.87;55.71;97575.69;5024656;28;20053;-67
2021/10/07 10:06:57;;;;;;;7.80;3.33;;;;;;;16.97;55.88;97608.47;5024577;28;20126;-66
2021/10/07 10:09:26;;;;;;;10.65;3.22;;;;;;;16.50;57.77;97595.63;5025112;28;20054;-67
2021/10/07 10:11:54;;;;;;;5.35;3.30;;;;;;;16.00;57.41;97516.34;5023541;28;20158;-67
2021/10/07 10:14:22;;;;;;;7.28;3.00;;;;;;;16.50;57.03;97554.44;5025052;28;20508;-64
2021/10/07 10:16:52;;;;;;;3.83;2.60;;;;;;;17.37;54.84;97588.50;5023018;28;20343;-63
2021/10/07 10:19:19;;;;;;;4.38;2.63;;;;;;;16.11;54.26;97399.78;5024135;28;20566;-65
2021/10/07 10:21:47;;;;;;;6.55;3.25;;;;;;;17.63;54.63;97596.50;5023540;28;20139;-63
2021/10/07 10:24:16;;;;;;;12.32;3.28;;;;;;;16.57;54.65;97423.00;5012119;28;20057;-66
2021/10/07 10:26:57;;;;;;;9.48;3.83;;;;;;;17.72;54.86;97582.88;5022324;28;20061;-64
2021/10/07 10:29:24;;;;;;;8.57;2.70;;;;;;;17.71;55.18;97586.88;5022845;28;20079;-70
2021/10/07 10:31:53;;;;;;;10.15;3.30;;;;;;;17.60;54.90;97583.28;5021929;28;20067;-61
2021/10/07 10:34:22;;;;;;;6.05;2.55;;;;;;;15.44;55.25;97253.66;5021238;28;20064;-64
2021/10/07 10:37:00;;;;;;;7.45;3.72;;;;;;;17.50;55.44;97584.09;5022766;28;20099;-66
2021/10/07 10:39:34;;;;;;;5.57;3.67;;;;;;;17.35;56.08;97582.50;5022165;28;20045;-61
2021/10/07 10:42:22;;;;;;;4.90;3.10;;;;;;;17.45;56.50;97623.75;5022884;28;20064;-63
2021/10/07 10:44:51;;;;;;;8.30;3.33;;;;;;;17.37;56.65;97589.28;5022587;28;20107;-64
2021/10/07 10:47:42;;;;;;;5.03;3.28;;;;;;;17.00;58.21;97588.09;5024057;28;20629;-63
2021/10/07 10:50:13;;;;;;;5.50;3.50;;;;;;;17.05;58.08;97590.50;5022663;28;20050;-67
2021/10/07 10:52:54;;;;;;;13.15;4.53;;;;;;;16.32;58.61;97514.44;4849899;28;5000823;-66
2021/10/07 10:55:28;;;;;;;8.88;3.72;;;;;;;15.66;59.90;97406.09;5022594;28;20057;-61
2021/10/07 10:58:06;;;;;;;8.75;4.43;;;;;;;16.60;59.34;97536.91;5022347;28;20045;-63
2021/10/07 11:00:34;;;;;;;12.73;4.35;;;;;;;16.73;60.21;97558.88;5022315;28;20049;-63
2021/10/07 11:03:07;;;;;;;9.70;4.03;;;;;;;16.64;61.07;97557.28;5023255;28;20050;-63
2021/10/07 11:05:41;;;;;;;12.27;3.90;;;;;;;15.97;61.35;97466.03;5022501;28;20065;-65
2021/10/07 11:08:08;;;;;;;9.40;4.57;;;;;;;16.43;61.90;97568.41;5021718;28;20128;-64
2021/10/07 11:10:57;;;;;;;10.48;4.38;;;;;;;15.90;63.30;97550.63;5022564;28;20508;-62
2021/10/07 11:13:33;;;;;;;14.82;4.38;;;;;;;16.07;63.69;97575.06;5023463;28;20053;-63
2021/10/07 11:16:03;;;;;;;7.10;3.22;;;;;;;16.19;64.10;97569.13;5021797;28;20061;-62
2021/10/07 11:18:38;;;;;;;7.00;3.30;;;;;;;16.16;65.77;97558.72;5023665;28;20103;-63
2021/10/07 11:21:15;;;;;;;9.25;3.20;;;;;;;13.35;64.91;97082.34;5024108;28;20053;-61
2021/10/07 11:23:44;;;;;;;12.45;4.82;;;;;;;16.67;62.78;97560.47;5023144;28;20064;-60
2021/10/07 11:26:12;;;;;;;6.63;3.08;;;;;;;16.63;62.92;97559.69;5004924;28;20053;-64
2021/10/07 11:28:42;;;;;;;7.90;3.28;;;;;;;16.80;62.21;97564.50;5022831;28;20053;-61
2021/10/07 11:31:15;;;;;;;4.95;3.33;;;;;;;16.63;62.38;97566.88;5012013;28;20063;-61
2021/10/07 11:33:45;;;;;;;4.82;2.70;;;;;;;16.52;62.24;97560.44;5021415;28;20054;-63
2021/10/07 11:36:15;;;;;;;4.55;2.60;;;;;;;16.72;63.06;97568.47;5022488;28;20554;-63
2021/10/07 11:38:44;;;;;;;11.45;3.28;;;;;;;16.27;65.14;97514.03;5021748;28;20515;-61
2021/10/07 11:41:13;;;;;;;6.47;3.42;;;;;;;16.72;65.60;97579.66;5023688;28;20516;-61
2021/10/07 11:43:42;;;;;;;9.38;3.42;;;;;;;16.57;67.04;97578.84;5022323;28;20055;-63
2021/10/07 11:46:16;;;;;;;4.18;3.20;;;;;;;16.55;66.91;97575.63;5022647;28;20407;-61